createdAt,value
2017-12-17T00:00:51.102Z,94.13
2017-12-17T00:01:51.047Z,94.23
2017-12-17T00:03:44.501Z,94.23
2017-12-17T00:04:44.542Z,94.32
2017-12-17T00:06:38.990Z,94.04
2017-12-17T00:07:38.998Z,94.51
2017-12-17T00:09:31.958Z,94.98
2017-12-17T00:10:31.980Z,94.79
2017-12-17T00:12:26.462Z,95.17
2017-12-17T00:13:26.462Z,94.51
2017-12-17T00:15:19.942Z,94.70
2017-12-17T00:16:19.950Z,94.60
2017-12-17T00:18:12.902Z,94.60
2017-12-17T00:19:12.934Z,94.70
2017-12-17T00:21:06.415Z,94.89
2017-12-17T00:22:06.423Z,94.60
2017-12-17T00:23:59.886Z,94.98
2017-12-17T00:24:59.886Z,95.17
2017-12-17T00:26:53.390Z,95.07
2017-12-17T00:27:53.390Z,95.36
2017-12-17T00:29:46.343Z,95.69
2017-12-17T00:30:46.406Z,94.93
2017-12-17T00:32:39.887Z,95.03
2017-12-17T00:33:39.863Z,94.84
2017-12-17T00:35:33.311Z,94.79
2017-12-17T00:36:33.335Z,94.84
2017-12-17T00:38:27.831Z,94.74
2017-12-17T00:39:27.871Z,94.84
2017-12-17T00:41:21.297Z,95.31
2017-12-17T00:42:21.345Z,95.03
2017-12-17T00:44:15.775Z,94.74
2017-12-17T00:45:15.784Z,95.03
2017-12-17T00:47:10.247Z,94.46
2017-12-17T00:48:10.240Z,95.03
2017-12-17T00:50:03.752Z,94.84
2017-12-17T00:51:03.744Z,94.93
2017-12-17T00:52:58.232Z,94.56
2017-12-17T00:53:58.224Z,94.65
2017-12-17T00:55:51.696Z,94.65
2017-12-17T00:56:51.739Z,94.65
2017-12-17T00:58:46.192Z,94.65
2017-12-17T00:59:46.200Z,94.27
2017-12-17T01:01:40.640Z,94.18
2017-12-17T01:02:40.680Z,94.18
2017-12-17T01:04:34.184Z,93.99
2017-12-17T01:05:34.184Z,94.27
2017-12-17T01:07:27.137Z,93.99
2017-12-17T01:08:27.160Z,94.13
2017-12-17T01:10:21.641Z,94.13
2017-12-17T01:11:21.632Z,94.32
2017-12-17T01:13:16.096Z,94.23
2017-12-17T01:14:16.129Z,94.13
2017-12-17T01:16:09.602Z,94.23
2017-12-17T01:17:09.609Z,94.04
2017-12-17T01:19:03.097Z,94.32
2017-12-17T01:20:03.081Z,94.42
2017-12-17T01:21:56.561Z,94.60
2017-12-17T01:22:56.593Z,94.79
2017-12-17T01:24:51.073Z,94.60
2017-12-17T01:25:51.065Z,94.98
2017-12-17T01:27:45.505Z,94.89
2017-12-17T01:28:45.537Z,94.89
2017-12-17T01:30:39.041Z,94.42
2017-12-17T01:31:39.018Z,95.07
2017-12-17T01:33:32.466Z,95.17
2017-12-17T01:34:32.490Z,94.89
2017-12-17T01:36:25.997Z,95.26
2017-12-17T01:37:26.002Z,94.89
2017-12-17T01:39:19.434Z,95.17
2017-12-17T01:40:19.476Z,95.26
2017-12-17T01:42:12.946Z,95.55
2017-12-17T01:43:12.938Z,95.26
2017-12-17T01:45:06.402Z,95.26
2017-12-17T01:46:07.418Z,95.93
2017-12-17T01:48:00.018Z,95.55
2017-12-17T01:49:00.010Z,95.36
2017-12-17T01:50:53.466Z,95.36
2017-12-17T01:51:53.506Z,95.74
2017-12-17T01:53:47.955Z,95.74
2017-12-17T01:54:47.979Z,95.36
2017-12-17T01:56:42.439Z,95.55
2017-12-17T01:57:42.514Z,95.55
2017-12-17T01:59:36.946Z,95.55
2017-12-17T02:00:36.931Z,95.26
2017-12-17T02:02:30.371Z,95.36
2017-12-17T02:03:30.403Z,95.93
2017-12-17T02:05:23.387Z,96.22
2017-12-17T02:06:23.387Z,95.84
2017-12-17T02:08:16.939Z,96.36
2017-12-17T02:09:16.874Z,96.41
2017-12-17T02:11:10.371Z,95.93
2017-12-17T02:12:10.363Z,95.69
2017-12-17T02:14:03.803Z,96.17
2017-12-17T02:15:03.890Z,95.69
2017-12-17T02:16:57.300Z,95.79
2017-12-17T02:17:57.348Z,95.98
2017-12-17T02:19:51.756Z,96.26
2017-12-17T02:20:51.796Z,95.98
2017-12-17T02:22:46.251Z,95.98
2017-12-17T02:23:46.252Z,95.69
2017-12-17T02:25:39.708Z,96.07
2017-12-17T02:26:39.724Z,95.98
2017-12-17T02:28:34.227Z,96.07
2017-12-17T02:29:34.204Z,96.17
2017-12-17T02:31:27.668Z,96.07
2017-12-17T02:32:27.668Z,96.17
2017-12-17T02:34:22.148Z,96.17
2017-12-17T02:35:22.156Z,96.07
2017-12-17T02:37:15.638Z,96.17
2017-12-17T02:38:15.620Z,96.36
2017-12-17T02:40:09.068Z,95.79
2017-12-17T02:41:09.109Z,96.26
2017-12-17T02:43:03.610Z,96.55
2017-12-17T02:44:03.580Z,96.55
2017-12-17T02:45:57.012Z,96.55
2017-12-17T02:46:57.078Z,96.55
2017-12-17T02:48:51.525Z,96.73
2017-12-17T02:49:51.516Z,97.11
2017-12-17T02:51:46.148Z,96.83
2017-12-17T02:52:46.005Z,97.11
2017-12-17T02:54:40.485Z,96.92
2017-12-17T02:55:40.493Z,97.11
2017-12-17T02:57:33.965Z,96.83
2017-12-17T02:58:33.997Z,97.11
2017-12-17T03:00:27.525Z,97.02
2017-12-17T03:01:27.485Z,96.83
2017-12-17T03:03:20.925Z,97.02
2017-12-17T03:04:20.957Z,97.21
2017-12-17T03:06:15.478Z,97.02
2017-12-17T03:07:15.469Z,97.11
2017-12-17T03:09:09.909Z,97.11
2017-12-17T03:10:09.942Z,97.02
2017-12-17T03:12:03.422Z,97.02
2017-12-17T03:13:03.421Z,97.02
2017-12-17T03:14:56.862Z,97.02
2017-12-17T03:15:56.902Z,97.11
2017-12-17T03:17:50.382Z,97.02
2017-12-17T03:18:50.382Z,97.02
2017-12-17T03:20:44.822Z,96.83
2017-12-17T03:21:44.854Z,96.73
2017-12-17T03:23:39.326Z,97.02
2017-12-17T03:24:39.327Z,96.73
2017-12-17T03:26:33.758Z,97.11
2017-12-17T03:27:33.830Z,96.55
2017-12-17T03:29:27.279Z,96.64
2017-12-17T03:30:27.271Z,96.83
2017-12-17T03:32:21.735Z,97.21
2017-12-17T03:33:21.743Z,96.73
2017-12-17T03:35:16.263Z,97.02
2017-12-17T03:36:16.231Z,96.83
2017-12-17T03:38:09.719Z,96.92
2017-12-17T03:39:09.719Z,96.36
2017-12-17T03:41:04.167Z,96.36
2017-12-17T03:42:04.199Z,96.83
2017-12-17T03:43:57.183Z,97.02
2017-12-17T03:44:57.175Z,97.11
2017-12-17T03:46:50.632Z,96.55
2017-12-17T03:47:50.639Z,96.83
2017-12-17T03:49:44.088Z,96.83
2017-12-17T03:50:44.144Z,96.83
2017-12-17T03:52:37.591Z,96.83
2017-12-17T03:53:37.600Z,96.73
2017-12-17T03:55:32.072Z,97.21
2017-12-17T03:56:32.072Z,97.87
2017-12-17T03:58:25.506Z,97.40
2017-12-17T03:59:25.592Z,96.83
2017-12-17T04:01:20.016Z,97.11
2017-12-17T04:02:20.016Z,97.21
2017-12-17T04:04:13.000Z,97.40
2017-12-17T04:05:13.008Z,96.64
2017-12-17T04:07:07.512Z,96.83
2017-12-17T04:08:07.504Z,97.21
2017-12-17T04:10:02.038Z,97.11
2017-12-17T04:11:02.000Z,96.83
2017-12-17T04:12:56.456Z,96.36
2017-12-17T04:13:56.492Z,96.92
2017-12-17T04:15:49.976Z,97.02
2017-12-17T04:16:49.977Z,96.83
2017-12-17T04:18:43.477Z,97.21
2017-12-17T04:19:43.473Z,97.11
2017-12-17T04:21:37.897Z,96.73
2017-12-17T04:22:37.945Z,97.21
2017-12-17T04:24:31.384Z,96.64
2017-12-17T04:25:31.401Z,96.78
2017-12-17T04:27:29.425Z,96.59
2017-12-17T04:28:25.872Z,96.36
2017-12-17T04:30:19.361Z,96.59
2017-12-17T04:31:19.361Z,97.21
2017-12-17T04:33:12.817Z,96.83
2017-12-17T04:34:12.827Z,97.21
2017-12-17T04:36:07.297Z,96.83
2017-12-17T04:37:07.313Z,96.83
2017-12-17T04:39:01.745Z,96.69
2017-12-17T04:40:01.769Z,97.40
2017-12-17T04:41:56.249Z,97.59
2017-12-17T04:42:56.242Z,97.63
2017-12-17T04:44:50.730Z,97.68
2017-12-17T04:45:50.723Z,97.78
2017-12-17T04:47:45.170Z,97.16
2017-12-17T04:48:45.202Z,97.59
2017-12-17T04:50:39.674Z,97.16
2017-12-17T04:51:39.674Z,97.25
2017-12-17T04:53:34.153Z,97.21
2017-12-17T04:54:34.178Z,97.16
2017-12-17T04:56:27.610Z,97.21
2017-12-17T04:57:27.611Z,97.16
2017-12-17T04:59:21.066Z,97.16
2017-12-17T05:00:21.098Z,97.25
2017-12-17T05:02:14.530Z,96.97
2017-12-17T05:03:14.546Z,97.16
2017-12-17T05:05:09.003Z,97.63
2017-12-17T05:06:09.011Z,97.82
2017-12-17T05:08:02.473Z,97.16
2017-12-17T05:09:02.501Z,97.82
2017-12-17T05:10:56.995Z,97.25
2017-12-17T05:11:56.995Z,97.82
2017-12-17T05:13:50.435Z,97.54
2017-12-17T05:14:50.475Z,97.25
2017-12-17T05:16:44.011Z,97.25
2017-12-17T05:17:44.003Z,97.25
2017-12-17T05:19:38.435Z,96.97
2017-12-17T05:20:38.467Z,97.25
2017-12-17T05:22:31.997Z,96.97
2017-12-17T05:23:32.001Z,96.97
2017-12-17T05:25:24.993Z,97.16
2017-12-17T05:26:24.986Z,97.35
2017-12-17T05:28:18.424Z,96.88
2017-12-17T05:29:18.465Z,97.16
2017-12-17T05:31:12.937Z,97.25
2017-12-17T05:32:12.929Z,97.35
2017-12-17T05:34:07.370Z,97.25
2017-12-17T05:35:07.408Z,97.54
2017-12-17T05:37:00.874Z,97.35
2017-12-17T05:38:00.930Z,97.16
2017-12-17T05:39:54.410Z,97.25
2017-12-17T05:40:54.402Z,97.16
2017-12-17T05:42:48.794Z,97.35
2017-12-17T05:43:48.818Z,96.97
2017-12-17T05:45:43.330Z,97.44
2017-12-17T05:46:43.282Z,97.25
2017-12-17T05:48:36.729Z,96.97
2017-12-17T05:49:36.762Z,97.35
2017-12-17T05:51:30.218Z,97.44
2017-12-17T05:52:30.234Z,97.92
2017-12-17T05:54:24.690Z,97.25
2017-12-17T05:55:24.722Z,97.16
2017-12-17T05:57:19.194Z,97.16
2017-12-17T05:58:19.226Z,97.06
2017-12-17T06:00:12.666Z,97.25
2017-12-17T06:01:12.666Z,97.25
2017-12-17T06:03:06.122Z,97.06
2017-12-17T06:04:06.150Z,96.97
2017-12-17T06:05:59.611Z,97.06
2017-12-17T06:06:59.635Z,97.16
2017-12-17T06:08:52.611Z,97.35
2017-12-17T06:09:52.603Z,97.16
2017-12-17T06:11:46.059Z,97.16
2017-12-17T06:12:46.091Z,97.16
2017-12-17T06:14:40.547Z,97.16
2017-12-17T06:15:40.547Z,97.63
2017-12-17T06:17:34.036Z,97.73
2017-12-17T06:18:34.045Z,97.44
2017-12-17T06:20:27.523Z,97.63
2017-12-17T06:21:27.507Z,97.16
2017-12-17T06:23:21.988Z,97.35
2017-12-17T06:24:21.988Z,97.35
2017-12-17T06:26:16.460Z,97.16
2017-12-17T06:27:16.491Z,97.25
2017-12-17T06:29:09.996Z,97.54
2017-12-17T06:30:09.996Z,97.16
2017-12-17T06:32:02.958Z,97.06
2017-12-17T06:33:02.980Z,97.16
2017-12-17T06:34:56.484Z,97.16
2017-12-17T06:35:56.452Z,97.06
2017-12-17T06:37:49.884Z,97.25
2017-12-17T06:38:49.932Z,97.63
2017-12-17T06:40:43.397Z,97.35
2017-12-17T06:41:43.428Z,97.44
2017-12-17T06:43:36.941Z,96.88
2017-12-17T06:44:36.868Z,97.11
2017-12-17T06:46:31.383Z,96.69
2017-12-17T06:47:31.340Z,96.64
2017-12-17T06:49:25.765Z,96.64
2017-12-17T06:50:25.797Z,97.49
2017-12-17T06:52:20.293Z,97.16
2017-12-17T06:53:20.301Z,97.39
2017-12-17T06:55:14.733Z,97.82
2017-12-17T06:56:14.813Z,97.92
2017-12-17T06:58:08.261Z,97.92
2017-12-17T06:59:08.293Z,97.54
2017-12-17T07:01:01.691Z,97.16
2017-12-17T07:02:01.716Z,97.25
2017-12-17T07:03:56.243Z,97.87
2017-12-17T07:04:56.203Z,97.35
2017-12-17T07:06:50.656Z,97.20
2017-12-17T07:07:50.655Z,97.16
2017-12-17T07:09:45.160Z,97.11
2017-12-17T07:10:45.160Z,97.44
2017-12-17T07:12:39.615Z,97.39
2017-12-17T07:13:39.641Z,97.30
2017-12-17T07:15:34.104Z,97.73
2017-12-17T07:16:34.103Z,97.96
2017-12-17T07:18:28.552Z,98.06
2017-12-17T07:19:28.584Z,97.77
2017-12-17T07:21:23.059Z,97.30
2017-12-17T07:22:23.056Z,97.87
2017-12-17T07:24:16.624Z,97.77
2017-12-17T07:25:16.528Z,97.30
2017-12-17T07:27:11.009Z,97.30
2017-12-17T07:28:11.033Z,97.30
2017-12-17T07:30:05.488Z,97.58
2017-12-17T07:31:05.489Z,97.87
2017-12-17T07:32:58.928Z,97.20
2017-12-17T07:33:58.984Z,97.02
2017-12-17T07:35:52.505Z,97.02
2017-12-17T07:36:52.457Z,97.02
2017-12-17T07:38:45.417Z,97.39
2017-12-17T07:39:45.457Z,97.20
2017-12-17T07:41:39.931Z,97.30
2017-12-17T07:42:39.927Z,97.49
2017-12-17T07:44:34.391Z,97.39
2017-12-17T07:45:34.424Z,97.96
2017-12-17T07:47:27.911Z,97.68
2017-12-17T07:48:27.903Z,98.06
2017-12-17T07:50:22.399Z,97.68
2017-12-17T07:51:22.383Z,97.49
2017-12-17T07:53:16.834Z,97.77
2017-12-17T07:54:16.855Z,97.87
2017-12-17T07:56:10.320Z,97.96
2017-12-17T07:57:10.319Z,98.01
2017-12-17T07:59:04.770Z,97.96
2017-12-17T08:00:04.800Z,97.92
2017-12-17T08:01:59.263Z,97.73
2017-12-17T08:02:59.280Z,97.73
2017-12-17T08:04:53.768Z,97.73
2017-12-17T08:05:53.768Z,97.77
2017-12-17T08:07:48.240Z,97.73
2017-12-17T08:08:48.296Z,98.01
2017-12-17T08:10:41.696Z,97.82
2017-12-17T08:11:41.712Z,98.11
2017-12-17T08:13:34.726Z,98.01
2017-12-17T08:14:34.696Z,97.73
2017-12-17T08:16:28.184Z,97.54
2017-12-17T08:17:28.208Z,97.92
2017-12-17T08:19:21.663Z,97.92
2017-12-17T08:20:21.656Z,98.11
2017-12-17T08:22:14.722Z,97.35
2017-12-17T08:23:14.654Z,97.82
2017-12-17T08:25:08.102Z,97.82
2017-12-17T08:26:08.206Z,97.73
2017-12-17T08:28:10.630Z,97.44
2017-12-17T08:29:08.726Z,97.35
2017-12-17T08:31:00.718Z,97.35
2017-12-17T08:32:00.737Z,97.35
2017-12-17T08:33:54.199Z,97.25
2017-12-17T08:34:54.207Z,98.01
2017-12-17T08:36:48.655Z,97.82
2017-12-17T08:37:48.712Z,97.82
2017-12-17T08:39:42.207Z,98.01
2017-12-17T08:40:42.184Z,97.35
2017-12-17T08:42:36.626Z,97.25
2017-12-17T08:43:36.671Z,97.54
2017-12-17T08:45:30.136Z,97.35
2017-12-17T08:46:30.120Z,97.73
2017-12-17T08:48:23.575Z,97.25
2017-12-17T08:49:23.607Z,97.16
2017-12-17T08:51:18.159Z,97.49
2017-12-17T08:52:18.456Z,97.49
2017-12-17T08:54:13.631Z,97.49
2017-12-17T08:55:12.944Z,97.49
2017-12-17T08:57:07.593Z,97.78
2017-12-17T08:58:07.456Z,97.21
2017-12-17T09:00:00.424Z,97.21
2017-12-17T09:01:00.424Z,97.59
2017-12-17T09:02:53.872Z,96.73
2017-12-17T09:03:53.896Z,97.11
2017-12-17T09:05:47.345Z,97.40
2017-12-17T09:06:47.355Z,97.21
2017-12-17T09:08:42.098Z,97.30
2017-12-17T09:09:40.969Z,97.11
2017-12-17T09:11:34.001Z,97.45
2017-12-17T09:12:33.985Z,96.88
2017-12-17T09:14:28.424Z,97.83
2017-12-17T09:15:28.450Z,97.40
2017-12-17T09:17:21.961Z,96.17
2017-12-17T09:18:21.969Z,97.02
2017-12-17T09:20:15.449Z,96.92
2017-12-17T09:21:15.417Z,96.08
2017-12-17T09:23:08.897Z,94.84
2017-12-17T09:24:08.897Z,94.84
2017-12-17T09:26:02.353Z,94.65
2017-12-17T09:27:02.401Z,95.22
2017-12-17T09:28:55.809Z,94.84
2017-12-17T09:29:55.827Z,94.56
2017-12-17T09:31:49.366Z,95.50
2017-12-17T09:32:49.437Z,95.31
2017-12-17T09:34:42.305Z,95.17
2017-12-17T09:35:42.330Z,94.89
2017-12-17T09:37:36.914Z,95.36
2017-12-17T09:38:36.882Z,94.79
2017-12-17T09:40:31.466Z,94.32
2017-12-17T09:41:31.506Z,93.94
2017-12-17T09:43:26.066Z,93.08
2017-12-17T09:44:26.034Z,93.37
2017-12-17T09:46:20.506Z,92.52
2017-12-17T09:47:20.538Z,92.47
2017-12-17T09:49:15.017Z,93.89
2017-12-17T09:50:15.019Z,95.22
2017-12-17T09:52:09.480Z,94.22
2017-12-17T09:53:09.528Z,90.41
2017-12-17T09:55:03.985Z,89.40
2017-12-17T09:56:04.153Z,83.34
2017-12-17T09:57:58.449Z,84.43
2017-12-17T09:58:58.502Z,82.75
2017-12-17T10:00:52.938Z,78.64
2017-12-17T10:01:52.953Z,78.85
2017-12-17T10:03:47.457Z,77.11
2017-12-17T10:04:47.451Z,77.74
2017-12-17T10:06:40.913Z,79.70
2017-12-17T10:07:40.913Z,79.75
2017-12-17T10:09:35.393Z,80.10
2017-12-17T10:10:35.402Z,80.66
2017-12-17T10:12:28.873Z,81.33
2017-12-17T10:13:28.906Z,80.10
2017-12-17T10:15:23.394Z,80.00
2017-12-17T10:16:23.378Z,80.47
2017-12-17T10:18:16.842Z,81.14
2017-12-17T10:19:16.866Z,80.76
2017-12-17T10:21:11.346Z,83.45
2017-12-17T10:22:11.370Z,83.44
2017-12-17T10:24:05.866Z,79.25
2017-12-17T10:25:05.866Z,76.65
2017-12-17T10:27:00.339Z,67.82
2017-12-17T10:28:00.362Z,65.52
2017-12-17T10:29:54.835Z,67.79
2017-12-17T10:30:54.843Z,66.77
2017-12-17T10:32:48.435Z,59.70
2017-12-17T10:33:48.419Z,62.13
2017-12-17T10:35:42.826Z,56.85
2017-12-17T10:36:42.923Z,57.68
2017-12-17T10:38:37.310Z,55.56
2017-12-17T10:39:37.362Z,52.58
2017-12-17T10:41:30.907Z,51.16
2017-12-17T10:42:31.883Z,51.14
2017-12-17T10:44:24.387Z,52.40
2017-12-17T10:45:25.483Z,52.30
2017-12-17T10:47:17.523Z,53.69
2017-12-17T10:48:18.451Z,52.83
2017-12-17T10:50:10.939Z,55.10
2017-12-17T10:51:10.956Z,55.80
2017-12-17T10:53:03.947Z,57.78
2017-12-17T10:54:03.940Z,58.07
2017-12-17T10:55:57.511Z,58.58
2017-12-17T10:56:57.471Z,57.17
2017-12-17T10:58:50.606Z,56.91
2017-12-17T10:59:50.503Z,55.69
2017-12-17T11:01:43.511Z,55.15
2017-12-17T11:02:43.661Z,54.19
2017-12-17T11:04:36.815Z,53.56
2017-12-17T11:05:36.767Z,54.04
2017-12-17T11:07:29.727Z,55.97
2017-12-17T11:08:30.118Z,54.75
2017-12-17T11:10:23.470Z,52.64
2017-12-17T11:11:23.446Z,50.82
2017-12-17T11:13:17.193Z,49.26
2017-12-17T11:14:16.878Z,50.29
2017-12-17T11:16:09.990Z,50.87
2017-12-17T11:17:09.950Z,52.07
2017-12-17T11:19:03.473Z,51.10
2017-12-17T11:20:03.498Z,50.63
2017-12-17T11:21:56.487Z,47.68
2017-12-17T11:22:56.529Z,48.21
2017-12-17T11:24:49.591Z,48.90
2017-12-17T11:25:49.576Z,51.15
2017-12-17T11:27:42.598Z,55.02
2017-12-17T11:28:42.581Z,57.41
2017-12-17T11:30:35.846Z,59.19
2017-12-17T11:31:35.659Z,60.59
2017-12-17T11:33:29.004Z,61.45
2017-12-17T11:34:28.970Z,63.42
2017-12-17T11:36:22.491Z,65.29
2017-12-17T11:37:22.060Z,66.49
2017-12-17T11:39:15.546Z,65.77
2017-12-17T11:40:15.540Z,66.02
2017-12-17T11:42:08.500Z,67.07
2017-12-17T11:43:08.619Z,67.25
2017-12-17T11:45:01.742Z,69.88
2017-12-17T11:46:01.579Z,70.54
2017-12-17T11:47:54.652Z,70.26
2017-12-17T11:48:54.565Z,70.45
2017-12-17T11:50:48.232Z,70.89
2017-12-17T11:51:48.111Z,72.22
2017-12-17T11:53:41.067Z,72.45
2017-12-17T11:54:41.090Z,72.79
2017-12-17T11:56:34.650Z,74.27
2017-12-17T11:57:34.609Z,75.42
2017-12-17T11:59:28.150Z,76.84
2017-12-17T12:00:28.110Z,77.03
2017-12-17T12:02:21.102Z,78.51
2017-12-17T12:03:21.094Z,77.98
2017-12-17T12:05:14.582Z,77.89
2017-12-17T12:06:14.582Z,78.08
2017-12-17T12:08:07.662Z,78.08
2017-12-17T12:09:08.558Z,77.41
2017-12-17T12:11:01.247Z,78.32
2017-12-17T12:12:01.598Z,79.74
2017-12-17T12:13:54.520Z,80.88
2017-12-17T12:14:54.414Z,81.55
2017-12-17T12:16:47.455Z,80.13
2017-12-17T12:17:48.343Z,80.03
2017-12-17T12:19:43.878Z,82.17
2017-12-17T12:22:37.046Z,82.69
2017-12-17T12:23:36.967Z,83.22
2017-12-17T12:25:31.449Z,83.31
2017-12-17T12:26:32.470Z,82.55
2017-12-17T12:28:24.511Z,82.08
2017-12-17T12:29:24.511Z,82.69
2017-12-17T12:31:18.119Z,83.16
2017-12-17T12:32:17.528Z,83.26
2017-12-17T12:34:11.936Z,82.88
2017-12-17T12:35:10.696Z,82.31
2017-12-17T12:37:03.811Z,83.78
2017-12-17T12:38:04.631Z,84.26
2017-12-17T12:39:57.531Z,83.59
2017-12-17T12:40:56.591Z,83.31
2017-12-17T12:42:50.167Z,84.26
2017-12-17T12:43:50.464Z,85.11
2017-12-17T12:45:44.199Z,85.74
2017-12-17T12:46:46.128Z,86.44
2017-12-17T12:48:37.752Z,85.78
2017-12-17T12:49:39.128Z,85.40
2017-12-17T12:51:30.448Z,85.49
2017-12-17T12:52:31.176Z,85.21
2017-12-17T12:54:25.122Z,85.87
2017-12-17T12:55:25.442Z,86.07
2017-12-17T12:57:18.520Z,86.16
2017-12-17T12:58:19.024Z,86.07
2017-12-17T13:00:13.520Z,85.68
2017-12-17T13:01:13.345Z,86.72
2017-12-17T13:03:06.595Z,86.82
2017-12-17T13:04:07.272Z,87.20
2017-12-17T13:06:00.681Z,86.63
2017-12-17T13:07:01.488Z,86.63
2017-12-17T13:09:13.082Z,87.11
2017-12-17T13:11:54.284Z,87.39
2017-12-17T13:12:54.596Z,86.91
2017-12-17T13:14:46.532Z,86.91
2017-12-17T13:15:46.534Z,86.91
2017-12-17T13:17:39.637Z,87.68
2017-12-17T13:18:39.548Z,87.68
2017-12-17T13:20:34.245Z,87.68
2017-12-17T13:21:34.140Z,87.96
2017-12-17T13:23:27.644Z,87.58
2017-12-17T13:24:27.630Z,88.06
2017-12-17T13:26:20.662Z,89.43
2017-12-17T13:27:20.589Z,89.67
2017-12-17T13:29:15.101Z,88.53
2017-12-17T13:30:15.270Z,88.53
2017-12-17T13:32:09.690Z,89.58
2017-12-17T13:33:09.694Z,89.10
2017-12-17T13:35:02.726Z,88.91
2017-12-17T13:36:02.717Z,88.53
2017-12-17T13:37:56.166Z,89.10
2017-12-17T13:38:56.151Z,89.10
2017-12-17T13:40:49.110Z,89.86
2017-12-17T13:41:49.134Z,89.20
2017-12-17T13:43:42.183Z,89.10
2017-12-17T13:44:42.175Z,89.67
2017-12-17T13:46:35.263Z,90.05
2017-12-17T13:47:35.279Z,90.90
2017-12-17T13:49:28.446Z,90.24
2017-12-17T13:50:29.367Z,90.71
2017-12-17T13:52:22.848Z,90.71
2017-12-17T13:53:22.991Z,90.90
2017-12-17T13:55:17.310Z,90.81
2017-12-17T13:56:17.439Z,90.90
2017-12-17T13:58:11.431Z,90.90
2017-12-17T13:59:11.391Z,91.14
2017-12-17T14:01:06.183Z,90.90
2017-12-17T14:02:05.912Z,91.05
2017-12-17T14:03:59.432Z,91.99
2017-12-17T14:04:59.392Z,92.28
2017-12-17T14:06:52.433Z,91.47
2017-12-17T14:07:52.400Z,91.05
2017-12-17T14:09:45.396Z,91.90
2017-12-17T14:10:45.416Z,92.04
2017-12-17T14:12:38.408Z,92.76
2017-12-17T14:13:39.400Z,92.76
2017-12-17T14:15:31.393Z,93.04
2017-12-17T14:16:32.827Z,92.57
2017-12-17T14:18:24.905Z,92.47
2017-12-17T14:19:25.009Z,92.85
2017-12-17T14:21:17.883Z,92.85
2017-12-17T14:22:17.865Z,92.38
2017-12-17T14:24:12.369Z,93.51
2017-12-17T14:25:12.570Z,93.04
2017-12-17T14:27:05.826Z,93.04
2017-12-17T14:28:06.313Z,93.32
2017-12-17T14:29:58.947Z,93.23
2017-12-17T14:30:59.057Z,93.13
2017-12-17T14:32:51.986Z,93.13
2017-12-17T14:33:52.994Z,92.94
2017-12-17T14:35:44.955Z,93.32
2017-12-17T14:36:45.002Z,93.61
2017-12-17T14:38:38.466Z,94.65
2017-12-17T14:39:38.466Z,95.03
2017-12-17T14:41:33.131Z,94.46
2017-12-17T14:42:32.922Z,94.65
2017-12-17T14:44:27.107Z,94.18
2017-12-17T14:45:27.211Z,94.18
2017-12-17T14:47:20.627Z,94.08
2017-12-17T14:48:20.939Z,94.27
2017-12-17T14:50:13.341Z,94.37
2017-12-17T14:51:13.315Z,94.08
2017-12-17T14:53:06.218Z,93.99
2017-12-17T14:54:07.270Z,94.84
2017-12-17T14:55:59.643Z,95.31
2017-12-17T14:57:01.196Z,95.03
2017-12-17T14:58:52.330Z,94.08
2017-12-17T14:59:52.259Z,93.99
2017-12-17T15:01:46.787Z,94.08
2017-12-17T15:02:46.802Z,93.70
2017-12-17T15:04:42.859Z,95.12
2017-12-17T15:05:44.323Z,94.93
2017-12-17T15:07:37.347Z,95.41
2017-12-17T15:08:37.339Z,95.31
2017-12-17T15:10:31.331Z,95.55
2017-12-17T15:11:31.372Z,95.98
2017-12-17T15:13:24.851Z,96.17
2017-12-17T15:14:24.867Z,96.17
2017-12-17T15:16:17.787Z,95.98
2017-12-17T15:17:17.819Z,96.17
2017-12-17T15:19:11.371Z,95.79
2017-12-17T15:20:12.325Z,96.17
2017-12-17T15:22:04.348Z,95.79
2017-12-17T15:23:04.387Z,96.26
2017-12-17T15:25:01.540Z,95.79
2017-12-17T15:25:58.892Z,95.41
2017-12-17T15:27:53.251Z,95.22
2017-12-17T15:28:53.356Z,95.31
2017-12-17T15:30:46.907Z,96.26
2017-12-17T15:31:46.811Z,95.60
2017-12-17T15:33:39.812Z,95.31
2017-12-17T15:34:40.828Z,95.12
2017-12-17T15:36:33.861Z,95.31
2017-12-17T15:37:33.374Z,95.31
2017-12-17T15:39:26.788Z,95.88
2017-12-17T15:40:27.765Z,95.31
2017-12-17T15:42:19.781Z,95.31
2017-12-17T15:43:19.788Z,95.79
2017-12-17T15:45:14.341Z,95.50
2017-12-17T15:46:15.309Z,95.98
2017-12-17T15:48:08.821Z,96.08
2017-12-17T15:49:09.501Z,95.69
2017-12-17T15:51:02.569Z,95.60
2017-12-17T15:52:02.693Z,96.45
2017-12-17T15:53:58.798Z,96.17
2017-12-17T15:54:56.902Z,95.60
2017-12-17T15:57:02.813Z,95.50
2017-12-17T15:58:02.710Z,95.41
2017-12-17T15:59:55.878Z,95.03
2017-12-17T16:00:55.709Z,94.46
2017-12-17T16:02:48.662Z,95.41
2017-12-17T16:03:48.662Z,95.79
2017-12-17T16:05:43.192Z,95.69
2017-12-17T16:06:43.181Z,96.08
2017-12-17T16:08:37.157Z,96.26
2017-12-17T16:09:37.133Z,95.79
2017-12-17T16:11:30.118Z,95.88
2017-12-17T16:12:31.526Z,95.98
2017-12-17T16:14:24.269Z,96.08
2017-12-17T16:15:25.118Z,96.08
2017-12-17T16:17:17.303Z,96.55
2017-12-17T16:18:16.727Z,96.17
2017-12-17T16:20:09.606Z,95.88
2017-12-17T16:21:09.606Z,96.41
2017-12-17T16:23:04.134Z,96.92
2017-12-17T16:24:04.153Z,97.12
2017-12-17T16:25:57.606Z,96.08
2017-12-17T16:27:01.287Z,96.17
2017-12-17T16:28:51.054Z,96.36
2017-12-17T16:29:51.047Z,96.64
2017-12-17T16:31:44.095Z,97.21
2017-12-17T16:32:44.559Z,96.64
2017-12-17T16:34:37.020Z,96.73
2017-12-17T16:35:37.539Z,96.69
2017-12-17T16:37:29.996Z,96.78
2017-12-17T16:38:30.027Z,96.88
2017-12-17T16:40:23.012Z,97.16
2017-12-17T16:41:23.068Z,96.88
2017-12-17T16:43:16.140Z,96.88
2017-12-17T16:44:15.981Z,96.88
2017-12-17T16:46:08.980Z,96.88
2017-12-17T16:47:08.956Z,96.97
2017-12-17T16:49:01.997Z,96.88
2017-12-17T16:50:01.980Z,97.16
2017-12-17T16:51:55.004Z,96.97
2017-12-17T16:52:55.004Z,96.88
2017-12-17T16:54:47.997Z,97.16
2017-12-17T16:55:49.029Z,97.26
2017-12-17T16:57:41.045Z,96.88
2017-12-17T16:58:42.031Z,96.59
2017-12-17T17:00:36.917Z,97.16
2017-12-17T17:01:36.940Z,97.07
2017-12-17T17:03:30.493Z,96.78
2017-12-17T17:04:30.493Z,97.16
2017-12-17T17:06:23.421Z,97.64
2017-12-17T17:07:24.413Z,98.30
2017-12-17T17:09:28.197Z,98.21
2017-12-17T17:10:16.933Z,98.02
2017-12-17T17:12:09.933Z,97.54
2017-12-17T17:13:09.966Z,97.26
2017-12-17T17:15:04.485Z,98.02
2017-12-17T17:16:04.421Z,98.21
2017-12-17T17:17:57.910Z,97.64
2017-12-17T17:18:57.902Z,97.83
2017-12-17T17:20:55.230Z,98.02
2017-12-17T17:21:52.573Z,97.92
2017-12-17T17:23:47.110Z,97.92
2017-12-17T17:24:47.054Z,98.39
2017-12-17T17:26:41.653Z,98.39
2017-12-17T17:27:42.366Z,98.58
2017-12-17T17:29:36.310Z,99.34
2017-12-17T17:30:37.894Z,98.77
2017-12-17T17:32:33.295Z,98.87
2017-12-17T17:33:39.710Z,98.96
2017-12-17T17:35:27.835Z,98.77
2017-12-17T17:36:27.879Z,98.77
2017-12-17T17:38:23.283Z,98.68
2017-12-17T17:39:23.014Z,98.58
2017-12-17T17:41:20.583Z,98.49
2017-12-17T17:42:18.191Z,98.87
2017-12-17T17:44:22.727Z,99.06
2017-12-17T17:45:13.134Z,98.87
2017-12-17T17:47:09.116Z,98.77
2017-12-17T17:48:08.356Z,99.06
2017-12-17T17:50:03.724Z,98.68
2017-12-17T17:51:03.270Z,98.77
2017-12-17T17:52:57.868Z,98.58
2017-12-17T17:53:56.060Z,98.58
2017-12-17T17:55:52.145Z,98.39
2017-12-17T17:56:52.148Z,98.68
2017-12-17T17:58:46.213Z,98.68
2017-12-17T17:59:47.212Z,99.06
2017-12-17T18:01:40.757Z,98.68
2017-12-17T18:02:41.125Z,98.39
2017-12-17T18:04:33.797Z,99.06
2017-12-17T18:05:33.735Z,99.53
2017-12-17T18:07:26.732Z,98.77
2017-12-17T18:08:27.725Z,99.06
2017-12-17T18:10:19.717Z,98.87
2017-12-17T18:11:19.710Z,99.15
2017-12-17T18:14:55.517Z,99.15
2017-12-17T18:15:47.341Z,99.53
2017-12-17T18:17:40.564Z,99.72
2017-12-17T18:18:40.301Z,99.99
2017-12-17T18:20:33.933Z,99.99
2017-12-17T18:21:34.302Z,99.99
2017-12-17T18:23:29.548Z,99.53
2017-12-17T18:24:30.213Z,99.34
2017-12-17T18:26:23.653Z,98.82
2017-12-17T18:27:22.917Z,98.92
2017-12-17T18:29:18.893Z,99.30
2017-12-17T18:30:19.885Z,98.82
2017-12-17T18:32:13.420Z,98.73
2017-12-17T18:33:13.333Z,98.68
2017-12-17T18:35:09.622Z,99.11
2017-12-17T18:36:08.069Z,98.63
2017-12-17T18:38:05.055Z,98.73
2017-12-17T18:39:02.334Z,98.82
2017-12-17T18:41:02.963Z,98.92
2017-12-17T18:42:02.566Z,99.11
2017-12-17T18:43:59.934Z,99.30